sensor_id;sensor_type;location;lat;lon;timestamp;P1;durP1;ratioP1;P2;durP2;ratioP2
55589;SDS011;41452;42.780;23.116;2023-12-20T00:00:17;24.48;;;12.00;;
55589;SDS011;41452;42.780;23.116;2023-12-20T00:02:43;25.20;;;12.05;;
55589;SDS011;41452;42.780;23.116;2023-12-20T00:05:12;30.55;;;12.77;;
55589;SDS011;41452;42.780;23.116;2023-12-20T00:07:38;20.67;;;10.85;;
55589;SDS011;41452;42.780;23.116;2023-12-20T00:10:04;26.92;;;10.45;;
55589;SDS011;41452;42.780;23.116;2023-12-20T00:12:29;21.50;;;10.75;;
55589;SDS011;41452;42.780;23.116;2023-12-20T00:14:55;27.60;;;10.27;;
55589;SDS011;41452;42.780;23.116;2023-12-20T00:17:20;27.80;;;10.52;;
55589;SDS011;41452;42.780;23.116;2023-12-20T00:19:45;20.20;;;10.20;;
55589;SDS011;41452;42.780;23.116;2023-12-20T00:22:11;18.42;;;9.43;;
55589;SDS011;41452;42.780;23.116;2023-12-20T00:24:36;20.17;;;10.07;;
55589;SDS011;41452;42.780;23.116;2023-12-20T00:27:02;23.35;;;11.10;;
55589;SDS011;41452;42.780;23.116;2023-12-20T00:29:27;23.88;;;10.32;;
55589;SDS011;41452;42.780;23.116;2023-12-20T00:31:53;23.23;;;10.65;;
55589;SDS011;41452;42.780;23.116;2023-12-20T00:34:18;23.33;;;10.23;;
55589;SDS011;41452;42.780;23.116;2023-12-20T00:36:43;19.02;;;9.93;;
55589;SDS011;41452;42.780;23.116;2023-12-20T00:39:09;20.65;;;10.43;;
55589;SDS011;41452;42.780;23.116;2023-12-20T00:41:34;24.02;;;11.27;;
55589;SDS011;41452;42.780;23.116;2023-12-20T00:43:59;25.15;;;10.98;;
55589;SDS011;41452;42.780;23.116;2023-12-20T00:46:25;25.20;;;10.93;;
55589;SDS011;41452;42.780;23.116;2023-12-20T00:48:50;19.05;;;9.95;;
55589;SDS011;41452;42.780;23.116;2023-12-20T00:51:16;17.50;;;9.70;;
55589;SDS011;41452;42.780;23.116;2023-12-20T00:53:41;23.42;;;9.73;;
55589;SDS011;41452;42.780;23.116;2023-12-20T00:56:06;19.15;;;9.93;;
55589;SDS011;41452;42.780;23.116;2023-12-20T00:58:32;19.23;;;9.57;;
55589;SDS011;41452;42.780;23.116;2023-12-20T01:00:57;21.80;;;9.88;;
55589;SDS011;41452;42.780;23.116;2023-12-20T01:03:23;17.95;;;9.43;;
55589;SDS011;41452;42.780;23.116;2023-12-20T01:05:48;20.15;;;9.18;;
55589;SDS011;41452;42.780;23.116;2023-12-20T01:08:14;17.00;;;8.73;;
55589;SDS011;41452;42.780;23.116;2023-12-20T01:10:39;22.30;;;8.75;;
55589;SDS011;41452;42.780;23.116;2023-12-20T01:13:05;15.38;;;7.68;;
55589;SDS011;41452;42.780;23.116;2023-12-20T01:15:30;15.60;;;7.35;;
55589;SDS011;41452;42.780;23.116;2023-12-20T01:17:56;15.50;;;7.13;;
55589;SDS011;41452;42.780;23.116;2023-12-20T01:20:23;16.20;;;7.90;;
55589;SDS011;41452;42.780;23.116;2023-12-20T01:22:49;13.57;;;7.03;;
55589;SDS011;41452;42.780;23.116;2023-12-20T01:25:14;18.10;;;7.07;;
55589;SDS011;41452;42.780;23.116;2023-12-20T01:27:39;9.77;;;5.38;;
55589;SDS011;41452;42.780;23.116;2023-12-20T01:30:05;14.00;;;5.78;;
55589;SDS011;41452;42.780;23.116;2023-12-20T01:32:31;10.20;;;5.13;;
55589;SDS011;41452;42.780;23.116;2023-12-20T01:34:56;12.32;;;6.05;;
55589;SDS011;41452;42.780;23.116;2023-12-20T01:37:22;13.35;;;5.90;;
55589;SDS011;41452;42.780;23.116;2023-12-20T01:39:48;9.82;;;5.53;;
55589;SDS011;41452;42.780;23.116;2023-12-20T01:42:14;12.98;;;6.45;;
55589;SDS011;41452;42.780;23.116;2023-12-20T01:44:54;9.70;;;5.40;;
55589;SDS011;41452;42.780;23.116;2023-12-20T01:47:19;11.57;;;6.38;;
55589;SDS011;41452;42.780;23.116;2023-12-20T01:49:46;13.57;;;6.20;;
55589;SDS011;41452;42.780;23.116;2023-12-20T01:52:12;12.10;;;6.10;;
55589;SDS011;41452;42.780;23.116;2023-12-20T01:54:38;17.10;;;6.68;;
55589;SDS011;41452;42.780;23.116;2023-12-20T01:57:05;14.52;;;6.88;;
55589;SDS011;41452;42.780;23.116;2023-12-20T01:59:32;12.52;;;7.05;;
55589;SDS011;41452;42.780;23.116;2023-12-20T02:01:58;16.05;;;7.95;;
55589;SDS011;41452;42.780;23.116;2023-12-20T02:04:24;13.07;;;6.72;;
55589;SDS011;41452;42.780;23.116;2023-12-20T02:06:52;14.18;;;6.60;;
55589;SDS011;41452;42.780;23.116;2023-12-20T02:09:18;16.20;;;7.18;;
55589;SDS011;41452;42.780;23.116;2023-12-20T02:11:43;18.08;;;7.80;;
55589;SDS011;41452;42.780;23.116;2023-12-20T02:14:09;18.25;;;8.18;;
55589;SDS011;41452;42.780;23.116;2023-12-20T02:16:34;18.90;;;8.73;;
55589;SDS011;41452;42.780;23.116;2023-12-20T02:18:59;16.60;;;8.48;;
55589;SDS011;41452;42.780;23.116;2023-12-20T02:21:25;14.38;;;7.35;;
55589;SDS011;41452;42.780;23.116;2023-12-20T02:23:56;20.50;;;8.38;;
55589;SDS011;41452;42.780;23.116;2023-12-20T02:26:22;14.55;;;7.90;;
55589;SDS011;41452;42.780;23.116;2023-12-20T02:28:47;17.58;;;8.88;;
55589;SDS011;41452;42.780;23.116;2023-12-20T02:31:12;19.23;;;9.60;;
55589;SDS011;41452;42.780;23.116;2023-12-20T02:33:38;20.48;;;9.05;;
55589;SDS011;41452;42.780;23.116;2023-12-20T02:36:04;16.67;;;8.65;;
55589;SDS011;41452;42.780;23.116;2023-12-20T02:38:31;17.55;;;8.77;;
55589;SDS011;41452;42.780;23.116;2023-12-20T02:40:57;23.10;;;10.20;;
55589;SDS011;41452;42.780;23.116;2023-12-20T02:43:22;19.73;;;10.48;;
55589;SDS011;41452;42.780;23.116;2023-12-20T02:45:47;23.48;;;9.48;;
55589;SDS011;41452;42.780;23.116;2023-12-20T02:48:13;22.80;;;9.80;;
55589;SDS011;41452;42.780;23.116;2023-12-20T02:50:38;18.90;;;9.63;;
55589;SDS011;41452;42.780;23.116;2023-12-20T02:53:03;17.02;;;7.95;;
55589;SDS011;41452;42.780;23.116;2023-12-20T02:55:29;23.05;;;8.65;;
55589;SDS011;41452;42.780;23.116;2023-12-20T02:57:54;18.92;;;8.77;;
55589;SDS011;41452;42.780;23.116;2023-12-20T03:00:20;11.98;;;7.10;;
55589;SDS011;41452;42.780;23.116;2023-12-20T03:02:45;21.05;;;7.57;;
55589;SDS011;41452;42.780;23.116;2023-12-20T03:05:10;17.25;;;8.85;;
55589;SDS011;41452;42.780;23.116;2023-12-20T03:07:36;20.35;;;8.73;;
55589;SDS011;41452;42.780;23.116;2023-12-20T03:10:03;18.15;;;9.32;;
55589;SDS011;41452;42.780;23.116;2023-12-20T03:12:29;23.05;;;9.20;;
55589;SDS011;41452;42.780;23.116;2023-12-20T03:14:54;24.90;;;9.68;;
55589;SDS011;41452;42.780;23.116;2023-12-20T03:17:20;19.02;;;8.07;;
55589;SDS011;41452;42.780;23.116;2023-12-20T03:19:46;18.63;;;9.02;;
55589;SDS011;41452;42.780;23.116;2023-12-20T03:22:11;22.20;;;8.27;;
55589;SDS011;41452;42.780;23.116;2023-12-20T03:24:36;23.88;;;10.00;;
55589;SDS011;41452;42.780;23.116;2023-12-20T03:27:02;19.05;;;7.75;;
55589;SDS011;41452;42.780;23.116;2023-12-20T03:29:27;24.88;;;10.75;;
55589;SDS011;41452;42.780;23.116;2023-12-20T03:31:53;29.75;;;9.90;;
55589;SDS011;41452;42.780;23.116;2023-12-20T03:34:18;30.35;;;11.48;;
55589;SDS011;41452;42.780;23.116;2023-12-20T03:36:44;30.85;;;9.70;;
55589;SDS011;41452;42.780;23.116;2023-12-20T03:39:09;28.77;;;11.88;;
55589;SDS011;41452;42.780;23.116;2023-12-20T03:41:35;26.65;;;11.45;;
55589;SDS011;41452;42.780;23.116;2023-12-20T03:44:00;24.95;;;11.27;;
55589;SDS011;41452;42.780;23.116;2023-12-20T03:46:26;22.30;;;10.05;;
55589;SDS011;41452;42.780;23.116;2023-12-20T03:48:51;19.10;;;9.82;;
55589;SDS011;41452;42.780;23.116;2023-12-20T03:51:16;19.45;;;8.98;;
55589;SDS011;41452;42.780;23.116;2023-12-20T03:53:42;18.90;;;8.15;;
55589;SDS011;41452;42.780;23.116;2023-12-20T03:56:07;13.52;;;6.78;;
55589;SDS011;41452;42.780;23.116;2023-12-20T03:58:33;11.75;;;5.80;;
55589;SDS011;41452;42.780;23.116;2023-12-20T04:00:58;10.27;;;6.43;;
55589;SDS011;41452;42.780;23.116;2023-12-20T04:03:23;11.52;;;5.65;;
55589;SDS011;41452;42.780;23.116;2023-12-20T04:05:49;17.25;;;6.05;;
55589;SDS011;41452;42.780;23.116;2023-12-20T04:08:14;17.58;;;7.07;;
55589;SDS011;41452;42.780;23.116;2023-12-20T04:10:40;12.77;;;5.80;;
55589;SDS011;41452;42.780;23.116;2023-12-20T04:13:05;14.25;;;6.82;;
55589;SDS011;41452;42.780;23.116;2023-12-20T04:15:31;18.02;;;7.78;;
55589;SDS011;41452;42.780;23.116;2023-12-20T04:17:56;12.52;;;5.85;;
55589;SDS011;41452;42.780;23.116;2023-12-20T04:20:21;11.98;;;6.32;;
55589;SDS011;41452;42.780;23.116;2023-12-20T04:22:47;11.85;;;5.90;;
55589;SDS011;41452;42.780;23.116;2023-12-20T04:25:12;15.73;;;7.25;;
55589;SDS011;41452;42.780;23.116;2023-12-20T04:27:38;12.95;;;5.30;;
55589;SDS011;41452;42.780;23.116;2023-12-20T04:30:03;16.17;;;6.22;;
55589;SDS011;41452;42.780;23.116;2023-12-20T04:32:29;15.25;;;5.63;;
55589;SDS011;41452;42.780;23.116;2023-12-20T04:34:54;17.58;;;6.55;;
55589;SDS011;41452;42.780;23.116;2023-12-20T04:37:20;16.52;;;6.72;;
55589;SDS011;41452;42.780;23.116;2023-12-20T04:39:45;17.50;;;8.88;;
55589;SDS011;41452;42.780;23.116;2023-12-20T04:42:11;17.50;;;8.85;;
55589;SDS011;41452;42.780;23.116;2023-12-20T04:44:36;17.73;;;9.07;;
55589;SDS011;41452;42.780;23.116;2023-12-20T04:47:01;30.42;;;9.88;;
55589;SDS011;41452;42.780;23.116;2023-12-20T04:49:27;23.65;;;9.13;;
55589;SDS011;41452;42.780;23.116;2023-12-20T04:51:52;19.50;;;9.60;;
55589;SDS011;41452;42.780;23.116;2023-12-20T04:54:18;17.52;;;9.10;;
55589;SDS011;41452;42.780;23.116;2023-12-20T04:56:43;22.95;;;9.18;;
55589;SDS011;41452;42.780;23.116;2023-12-20T04:59:08;15.45;;;7.80;;
55589;SDS011;41452;42.780;23.116;2023-12-20T05:01:34;22.23;;;8.85;;
55589;SDS011;41452;42.780;23.116;2023-12-20T05:03:59;24.33;;;10.40;;
55589;SDS011;41452;42.780;23.116;2023-12-20T05:06:24;21.35;;;8.93;;
55589;SDS011;41452;42.780;23.116;2023-12-20T05:08:50;30.35;;;12.15;;
55589;SDS011;41452;42.780;23.116;2023-12-20T05:11:15;28.60;;;11.70;;
55589;SDS011;41452;42.780;23.116;2023-12-20T05:13:41;23.33;;;11.07;;
55589;SDS011;41452;42.780;23.116;2023-12-20T05:16:07;16.92;;;7.85;;
55589;SDS011;41452;42.780;23.116;2023-12-20T05:18:33;13.80;;;7.32;;
55589;SDS011;41452;42.780;23.116;2023-12-20T05:20:59;16.27;;;7.15;;
55589;SDS011;41452;42.780;23.116;2023-12-20T05:23:24;19.13;;;6.68;;
55589;SDS011;41452;42.780;23.116;2023-12-20T05:25:50;13.63;;;7.53;;
55589;SDS011;41452;42.780;23.116;2023-12-20T05:28:15;19.27;;;8.45;;
55589;SDS011;41452;42.780;23.116;2023-12-20T05:30:40;24.52;;;9.38;;
55589;SDS011;41452;42.780;23.116;2023-12-20T05:33:06;19.52;;;9.35;;
55589;SDS011;41452;42.780;23.116;2023-12-20T05:35:31;32.28;;;12.00;;
55589;SDS011;41452;42.780;23.116;2023-12-20T05:37:56;22.98;;;10.57;;
55589;SDS011;41452;42.780;23.116;2023-12-20T05:40:22;17.20;;;8.70;;
55589;SDS011;41452;42.780;23.116;2023-12-20T05:42:47;19.63;;;9.52;;
55589;SDS011;41452;42.780;23.116;2023-12-20T05:45:14;20.60;;;8.68;;
55589;SDS011;41452;42.780;23.116;2023-12-20T05:47:39;21.17;;;10.32;;
55589;SDS011;41452;42.780;23.116;2023-12-20T05:50:05;17.95;;;9.48;;
55589;SDS011;41452;42.780;23.116;2023-12-20T05:52:31;18.85;;;8.25;;
55589;SDS011;41452;42.780;23.116;2023-12-20T05:54:56;24.27;;;9.50;;
55589;SDS011;41452;42.780;23.116;2023-12-20T05:57:26;47.33;;;14.90;;
55589;SDS011;41452;42.780;23.116;2023-12-20T05:59:52;37.03;;;13.52;;
55589;SDS011;41452;42.780;23.116;2023-12-20T06:02:17;34.45;;;11.68;;
55589;SDS011;41452;42.780;23.116;2023-12-20T06:04:43;28.80;;;12.10;;
55589;SDS011;41452;42.780;23.116;2023-12-20T06:07:11;36.53;;;14.00;;
55589;SDS011;41452;42.780;23.116;2023-12-20T06:09:37;46.08;;;16.25;;
55589;SDS011;41452;42.780;23.116;2023-12-20T06:12:02;46.63;;;15.15;;
55589;SDS011;41452;42.780;23.116;2023-12-20T06:14:28;62.05;;;16.85;;
55589;SDS011;41452;42.780;23.116;2023-12-20T06:16:53;53.38;;;19.50;;
55589;SDS011;41452;42.780;23.116;2023-12-20T06:19:18;53.72;;;18.00;;
55589;SDS011;41452;42.780;23.116;2023-12-20T06:21:44;58.75;;;19.00;;
55589;SDS011;41452;42.780;23.116;2023-12-20T06:24:09;73.85;;;21.80;;
55589;SDS011;41452;42.780;23.116;2023-12-20T06:26:35;81.10;;;23.00;;
55589;SDS011;41452;42.780;23.116;2023-12-20T06:29:00;97.75;;;26.95;;
55589;SDS011;41452;42.780;23.116;2023-12-20T06:31:26;84.95;;;28.88;;
55589;SDS011;41452;42.780;23.116;2023-12-20T06:33:51;150.02;;;36.55;;
55589;SDS011;41452;42.780;23.116;2023-12-20T06:36:22;139.80;;;36.78;;
55589;SDS011;41452;42.780;23.116;2023-12-20T06:38:48;109.93;;;32.63;;
55589;SDS011;41452;42.780;23.116;2023-12-20T06:41:13;107.00;;;30.27;;
55589;SDS011;41452;42.780;23.116;2023-12-20T06:43:39;114.20;;;30.33;;
55589;SDS011;41452;42.780;23.116;2023-12-20T06:46:06;105.82;;;30.65;;
55589;SDS011;41452;42.780;23.116;2023-12-20T06:48:31;73.53;;;23.50;;
55589;SDS011;41452;42.780;23.116;2023-12-20T06:50:57;76.20;;;22.92;;
55589;SDS011;41452;42.780;23.116;2023-12-20T06:53:24;70.28;;;21.38;;
55589;SDS011;41452;42.780;23.116;2023-12-20T06:55:50;77.32;;;21.83;;
55589;SDS011;41452;42.780;23.116;2023-12-20T06:58:15;63.90;;;21.25;;
55589;SDS011;41452;42.780;23.116;2023-12-20T07:00:41;58.65;;;21.08;;
55589;SDS011;41452;42.780;23.116;2023-12-20T07:03:07;57.05;;;20.60;;
55589;SDS011;41452;42.780;23.116;2023-12-20T07:05:32;56.28;;;19.83;;
55589;SDS011;41452;42.780;23.116;2023-12-20T07:07:58;74.03;;;22.73;;
55589;SDS011;41452;42.780;23.116;2023-12-20T07:10:23;53.63;;;20.40;;
55589;SDS011;41452;42.780;23.116;2023-12-20T07:12:49;65.07;;;21.27;;
55589;SDS011;41452;42.780;23.116;2023-12-20T07:15:16;50.88;;;20.35;;
55589;SDS011;41452;42.780;23.116;2023-12-20T07:17:41;46.00;;;18.17;;
55589;SDS011;41452;42.780;23.116;2023-12-20T07:20:07;45.78;;;16.20;;
55589;SDS011;41452;42.780;23.116;2023-12-20T08:20:11;31.05;;;13.88;;
55589;SDS011;41452;42.780;23.116;2023-12-20T08:22:36;49.78;;;17.50;;
55589;SDS011;41452;42.780;23.116;2023-12-20T08:25:01;47.10;;;15.40;;
55589;SDS011;41452;42.780;23.116;2023-12-20T08:27:27;41.58;;;15.73;;
55589;SDS011;41452;42.780;23.116;2023-12-20T08:29:52;36.95;;;13.85;;
55589;SDS011;41452;42.780;23.116;2023-12-20T08:32:18;43.78;;;13.52;;
55589;SDS011;41452;42.780;23.116;2023-12-20T08:34:43;25.88;;;12.02;;
55589;SDS011;41452;42.780;23.116;2023-12-20T08:37:08;30.73;;;12.13;;
55589;SDS011;41452;42.780;23.116;2023-12-20T08:39:34;26.92;;;12.38;;
55589;SDS011;41452;42.780;23.116;2023-12-20T08:41:59;32.47;;;15.48;;
55589;SDS011;41452;42.780;23.116;2023-12-20T08:44:25;28.73;;;13.30;;
55589;SDS011;41452;42.780;23.116;2023-12-20T08:46:50;35.03;;;11.98;;
55589;SDS011;41452;42.780;23.116;2023-12-20T08:49:15;30.48;;;13.70;;
55589;SDS011;41452;42.780;23.116;2023-12-20T08:51:42;29.77;;;13.27;;
55589;SDS011;41452;42.780;23.116;2023-12-20T08:54:07;29.13;;;12.30;;
55589;SDS011;41452;42.780;23.116;2023-12-20T08:56:33;29.25;;;12.30;;
55589;SDS011;41452;42.780;23.116;2023-12-20T08:58:59;37.42;;;12.85;;
55589;SDS011;41452;42.780;23.116;2023-12-20T09:01:24;28.38;;;12.50;;
55589;SDS011;41452;42.780;23.116;2023-12-20T09:03:49;36.90;;;13.25;;
55589;SDS011;41452;42.780;23.116;2023-12-20T09:06:15;27.63;;;12.70;;
55589;SDS011;41452;42.780;23.116;2023-12-20T09:08:40;32.88;;;13.23;;
55589;SDS011;41452;42.780;23.116;2023-12-20T09:11:06;42.60;;;13.02;;
55589;SDS011;41452;42.780;23.116;2023-12-20T09:13:32;36.15;;;13.60;;
55589;SDS011;41452;42.780;23.116;2023-12-20T09:15:57;43.60;;;15.95;;
55589;SDS011;41452;42.780;23.116;2023-12-20T09:18:23;36.38;;;15.10;;
55589;SDS011;41452;42.780;23.116;2023-12-20T09:20:48;48.08;;;15.82;;
55589;SDS011;41452;42.780;23.116;2023-12-20T09:23:14;32.92;;;14.18;;
55589;SDS011;41452;42.780;23.116;2023-12-20T09:25:39;32.05;;;12.43;;
55589;SDS011;41452;42.780;23.116;2023-12-20T09:28:05;35.65;;;14.48;;
55589;SDS011;41452;42.780;23.116;2023-12-20T09:30:30;39.63;;;15.23;;
55589;SDS011;41452;42.780;23.116;2023-12-20T09:32:56;34.85;;;15.27;;
55589;SDS011;41452;42.780;23.116;2023-12-20T09:35:22;33.95;;;14.80;;
55589;SDS011;41452;42.780;23.116;2023-12-20T09:37:48;43.28;;;14.73;;
55589;SDS011;41452;42.780;23.116;2023-12-20T09:40:14;45.05;;;16.40;;
55589;SDS011;41452;42.780;23.116;2023-12-20T09:42:56;36.47;;;15.75;;
55589;SDS011;41452;42.780;23.116;2023-12-20T09:45:22;70.90;;;26.50;;
55589;SDS011;41452;42.780;23.116;2023-12-20T09:47:52;61.40;;;26.90;;
55589;SDS011;41452;42.780;23.116;2023-12-20T09:50:19;50.90;;;23.17;;
55589;SDS011;41452;42.780;23.116;2023-12-20T09:52:47;47.67;;;19.30;;
55589;SDS011;41452;42.780;23.116;2023-12-20T09:55:16;48.78;;;21.23;;
55589;SDS011;41452;42.780;23.116;2023-12-20T09:57:43;53.20;;;21.50;;
55589;SDS011;41452;42.780;23.116;2023-12-20T10:00:09;54.13;;;22.02;;
55589;SDS011;41452;42.780;23.116;2023-12-20T10:02:35;43.33;;;18.52;;
55589;SDS011;41452;42.780;23.116;2023-12-20T10:05:06;54.58;;;23.83;;
55589;SDS011;41452;42.780;23.116;2023-12-20T10:07:34;69.75;;;29.60;;
55589;SDS011;41452;42.780;23.116;2023-12-20T10:10:00;51.25;;;21.55;;
55589;SDS011;41452;42.780;23.116;2023-12-20T10:12:27;48.90;;;22.08;;
55589;SDS011;41452;42.780;23.116;2023-12-20T10:14:52;52.28;;;21.33;;
55589;SDS011;41452;42.780;23.116;2023-12-20T10:17:18;42.63;;;19.13;;
55589;SDS011;41452;42.780;23.116;2023-12-20T10:19:43;50.90;;;21.13;;
55589;SDS011;41452;42.780;23.116;2023-12-20T11:24:24;71.32;;;26.27;;
55589;SDS011;41452;42.780;23.116;2023-12-20T11:26:50;91.18;;;29.00;;
55589;SDS011;41452;42.780;23.116;2023-12-20T11:29:34;93.57;;;26.98;;
55589;SDS011;41452;42.780;23.116;2023-12-20T11:32:01;90.40;;;27.05;;
55589;SDS011;41452;42.780;23.116;2023-12-20T11:34:28;125.80;;;31.40;;
55589;SDS011;41452;42.780;23.116;2023-12-20T11:37:00;81.35;;;25.90;;
55589;SDS011;41452;42.780;23.116;2023-12-20T11:39:26;72.15;;;26.70;;
55589;SDS011;41452;42.780;23.116;2023-12-20T11:41:54;72.70;;;28.25;;
55589;SDS011;41452;42.780;23.116;2023-12-20T11:44:21;66.22;;;25.95;;
55589;SDS011;41452;42.780;23.116;2023-12-20T11:46:46;60.22;;;26.27;;
55589;SDS011;41452;42.780;23.116;2023-12-20T11:49:12;69.60;;;27.95;;
55589;SDS011;41452;42.780;23.116;2023-12-20T11:51:40;65.35;;;27.63;;
55589;SDS011;41452;42.780;23.116;2023-12-20T11:54:07;63.33;;;25.23;;
55589;SDS011;41452;42.780;23.116;2023-12-20T11:56:34;53.22;;;22.98;;
55589;SDS011;41452;42.780;23.116;2023-12-20T11:59:00;54.13;;;25.40;;
55589;SDS011;41452;42.780;23.116;2023-12-20T12:01:26;42.92;;;20.65;;
55589;SDS011;41452;42.780;23.116;2023-12-20T12:04:02;52.58;;;22.73;;
55589;SDS011;41452;42.780;23.116;2023-12-20T12:06:28;61.13;;;24.90;;
55589;SDS011;41452;42.780;23.116;2023-12-20T12:08:54;56.55;;;24.17;;
55589;SDS011;41452;42.780;23.116;2023-12-20T12:11:20;58.72;;;23.58;;
55589;SDS011;41452;42.780;23.116;2023-12-20T12:13:46;52.95;;;24.42;;
55589;SDS011;41452;42.780;23.116;2023-12-20T12:16:11;46.53;;;21.13;;
55589;SDS011;41452;42.780;23.116;2023-12-20T12:18:37;47.50;;;21.17;;
55589;SDS011;41452;42.780;23.116;2023-12-20T12:21:02;60.13;;;25.88;;
55589;SDS011;41452;42.780;23.116;2023-12-20T12:23:28;65.93;;;24.70;;
55589;SDS011;41452;42.780;23.116;2023-12-20T12:25:53;66.75;;;29.70;;
55589;SDS011;41452;42.780;23.116;2023-12-20T13:33:20;144.98;;;28.33;;
55589;SDS011;41452;42.780;23.116;2023-12-20T13:35:45;124.68;;;31.38;;
55589;SDS011;41452;42.780;23.116;2023-12-20T13:38:12;155.38;;;30.42;;
55589;SDS011;41452;42.780;23.116;2023-12-20T13:40:38;89.55;;;29.42;;
55589;SDS011;41452;42.780;23.116;2023-12-20T13:43:03;123.65;;;30.17;;
55589;SDS011;41452;42.780;23.116;2023-12-20T13:45:30;122.60;;;30.42;;
55589;SDS011;41452;42.780;23.116;2023-12-20T13:47:55;136.57;;;42.28;;
55589;SDS011;41452;42.780;23.116;2023-12-20T13:50:21;117.07;;;36.13;;
55589;SDS011;41452;42.780;23.116;2023-12-20T13:52:47;106.75;;;31.42;;
55589;SDS011;41452;42.780;23.116;2023-12-20T13:55:12;115.40;;;29.75;;
55589;SDS011;41452;42.780;23.116;2023-12-20T13:57:37;121.07;;;29.55;;
55589;SDS011;41452;42.780;23.116;2023-12-20T14:00:04;129.45;;;28.92;;
55589;SDS011;41452;42.780;23.116;2023-12-20T14:02:30;122.72;;;28.15;;
55589;SDS011;41452;42.780;23.116;2023-12-20T14:04:55;101.88;;;29.75;;
55589;SDS011;41452;42.780;23.116;2023-12-20T14:07:21;117.00;;;28.50;;
55589;SDS011;41452;42.780;23.116;2023-12-20T14:09:46;86.00;;;29.08;;
55589;SDS011;41452;42.780;23.116;2023-12-20T14:12:12;96.68;;;29.48;;
55589;SDS011;41452;42.780;23.116;2023-12-20T14:14:38;106.78;;;31.65;;
55589;SDS011;41452;42.780;23.116;2023-12-20T14:17:03;103.70;;;31.95;;
55589;SDS011;41452;42.780;23.116;2023-12-20T14:19:31;86.43;;;30.10;;
55589;SDS011;41452;42.780;23.116;2023-12-20T14:21:57;100.65;;;35.35;;
55589;SDS011;41452;42.780;23.116;2023-12-20T14:24:26;92.20;;;31.92;;
55589;SDS011;41452;42.780;23.116;2023-12-20T14:26:52;119.38;;;35.00;;
55589;SDS011;41452;42.780;23.116;2023-12-20T14:29:18;115.65;;;42.13;;
55589;SDS011;41452;42.780;23.116;2023-12-20T14:31:43;85.78;;;30.90;;
55589;SDS011;41452;42.780;23.116;2023-12-20T14:34:08;88.22;;;34.88;;
55589;SDS011;41452;42.780;23.116;2023-12-20T14:36:34;81.72;;;34.08;;
55589;SDS011;41452;42.780;23.116;2023-12-20T14:39:00;85.25;;;34.97;;
55589;SDS011;41452;42.780;23.116;2023-12-20T14:41:27;77.78;;;33.50;;
55589;SDS011;41452;42.780;23.116;2023-12-20T14:43:53;93.82;;;36.70;;
55589;SDS011;41452;42.780;23.116;2023-12-20T14:46:18;74.78;;;31.38;;
55589;SDS011;41452;42.780;23.116;2023-12-20T14:48:44;68.72;;;29.58;;
55589;SDS011;41452;42.780;23.116;2023-12-20T14:51:09;69.85;;;31.23;;
55589;SDS011;41452;42.780;23.116;2023-12-20T14:53:36;72.03;;;33.30;;
55589;SDS011;41452;42.780;23.116;2023-12-20T14:56:03;79.55;;;32.95;;
55589;SDS011;41452;42.780;23.116;2023-12-20T15:09:44;72.72;;;33.72;;
55589;SDS011;41452;42.780;23.116;2023-12-20T15:12:11;79.78;;;37.00;;
55589;SDS011;41452;42.780;23.116;2023-12-20T15:14:37;80.95;;;35.00;;
55589;SDS011;41452;42.780;23.116;2023-12-20T15:17:03;78.35;;;32.42;;
55589;SDS011;41452;42.780;23.116;2023-12-20T15:19:30;72.10;;;32.63;;
55589;SDS011;41452;42.780;23.116;2023-12-20T15:21:55;82.47;;;36.17;;
55589;SDS011;41452;42.780;23.116;2023-12-20T15:24:21;94.97;;;42.25;;
55589;SDS011;41452;42.780;23.116;2023-12-20T15:26:53;72.03;;;33.90;;
55589;SDS011;41452;42.780;23.116;2023-12-20T15:29:19;65.00;;;28.70;;
55589;SDS011;41452;42.780;23.116;2023-12-20T15:31:45;66.45;;;27.50;;
55589;SDS011;41452;42.780;23.116;2023-12-20T15:34:11;59.70;;;25.90;;
55589;SDS011;41452;42.780;23.116;2023-12-20T15:36:38;67.88;;;26.17;;
55589;SDS011;41452;42.780;23.116;2023-12-20T15:39:04;63.65;;;30.20;;
55589;SDS011;41452;42.780;23.116;2023-12-20T15:41:30;62.28;;;27.30;;
55589;SDS011;41452;42.780;23.116;2023-12-20T15:43:55;55.67;;;26.33;;
55589;SDS011;41452;42.780;23.116;2023-12-20T15:46:21;59.85;;;24.77;;
55589;SDS011;41452;42.780;23.116;2023-12-20T15:48:47;65.35;;;24.50;;
55589;SDS011;41452;42.780;23.116;2023-12-20T15:51:13;49.72;;;23.10;;
55589;SDS011;41452;42.780;23.116;2023-12-20T15:53:39;59.00;;;25.48;;
55589;SDS011;41452;42.780;23.116;2023-12-20T15:56:04;67.00;;;28.13;;
55589;SDS011;41452;42.780;23.116;2023-12-20T15:58:30;85.03;;;35.10;;
55589;SDS011;41452;42.780;23.116;2023-12-20T16:00:56;102.03;;;43.80;;
55589;SDS011;41452;42.780;23.116;2023-12-20T16:03:21;102.32;;;45.38;;
55589;SDS011;41452;42.780;23.116;2023-12-20T16:05:47;98.78;;;45.60;;
55589;SDS011;41452;42.780;23.116;2023-12-20T16:08:12;84.80;;;40.40;;
55589;SDS011;41452;42.780;23.116;2023-12-20T16:10:37;78.32;;;36.42;;
55589;SDS011;41452;42.780;23.116;2023-12-20T16:13:03;66.82;;;33.20;;
55589;SDS011;41452;42.780;23.116;2023-12-20T16:15:29;65.32;;;29.23;;
55589;SDS011;41452;42.780;23.116;2023-12-20T16:17:54;62.17;;;30.10;;
55589;SDS011;41452;42.780;23.116;2023-12-20T16:20:20;69.78;;;31.25;;
55589;SDS011;41452;42.780;23.116;2023-12-20T16:22:45;65.18;;;28.85;;
55589;SDS011;41452;42.780;23.116;2023-12-20T16:25:10;61.78;;;30.05;;
55589;SDS011;41452;42.780;23.116;2023-12-20T16:27:36;62.92;;;30.60;;
55589;SDS011;41452;42.780;23.116;2023-12-20T16:30:03;74.80;;;32.58;;
55589;SDS011;41452;42.780;23.116;2023-12-20T16:32:29;62.40;;;29.83;;
55589;SDS011;41452;42.780;23.116;2023-12-20T16:34:55;70.40;;;29.80;;
55589;SDS011;41452;42.780;23.116;2023-12-20T16:37:21;77.22;;;31.60;;
55589;SDS011;41452;42.780;23.116;2023-12-20T16:39:48;76.00;;;32.92;;
55589;SDS011;41452;42.780;23.116;2023-12-20T16:42:14;82.40;;;35.38;;
55589;SDS011;41452;42.780;23.116;2023-12-20T16:44:39;86.93;;;34.42;;
55589;SDS011;41452;42.780;23.116;2023-12-20T16:47:05;74.22;;;33.92;;
55589;SDS011;41452;42.780;23.116;2023-12-20T16:49:30;75.10;;;32.25;;
55589;SDS011;41452;42.780;23.116;2023-12-20T16:51:56;60.80;;;28.13;;
55589;SDS011;41452;42.780;23.116;2023-12-20T16:54:21;58.63;;;25.40;;
55589;SDS011;41452;42.780;23.116;2023-12-20T16:56:46;60.45;;;26.98;;
55589;SDS011;41452;42.780;23.116;2023-12-20T16:59:12;80.03;;;34.72;;
55589;SDS011;41452;42.780;23.116;2023-12-20T17:01:38;89.32;;;38.35;;
55589;SDS011;41452;42.780;23.116;2023-12-20T17:04:07;74.45;;;31.98;;
55589;SDS011;41452;42.780;23.116;2023-12-20T17:06:33;80.13;;;35.90;;
55589;SDS011;41452;42.780;23.116;2023-12-20T17:08:58;71.40;;;33.63;;
55589;SDS011;41452;42.780;23.116;2023-12-20T17:11:24;78.40;;;36.88;;
55589;SDS011;41452;42.780;23.116;2023-12-20T17:13:49;76.72;;;35.08;;
55589;SDS011;41452;42.780;23.116;2023-12-20T17:16:14;66.65;;;33.15;;
55589;SDS011;41452;42.780;23.116;2023-12-20T17:18:40;77.85;;;35.10;;